Time;durP1;ratioP1;P1;durP2;ratioP2;P2;SDS_P1;SDS_P2;PMS_P1;PMS_P2;Temp;Humidity;BMP_temperature;BMP_pressure;BME280_temperature;BME280_humidity;BME280_pressure;Samples;Min_cycle;Max_cycle;Signal;HPM_P1;HPM_P2
2023/04/05 00:01:14;;;;;;;0.30;0.30;;;;;;;8.08;82.86;94474.47;5133713;27;20953;-60
2023/04/05 00:03:43;;;;;;;0.40;0.30;;;;;;;8.23;82.78;94478.84;5133177;27;20962;-60
2023/04/05 00:06:15;;;;;;;1.33;0.60;;;;;;;8.07;83.06;94472.88;5133621;27;20450;-60
2023/04/05 00:08:49;;;;;;;0.40;0.30;;;;;;;8.15;82.31;94479.44;5133634;27;20523;-60
2023/04/05 00:11:18;;;;;;;0.77;0.40;;;;;;;8.23;86.66;94470.94;5133710;27;20427;-60
2023/04/05 00:13:48;;;;;;;0.40;0.30;;;;;;;8.11;82.79;94473.13;5133254;27;21010;-60
2023/04/05 00:16:17;;;;;;;0.83;0.83;;;;;;;8.17;82.04;94469.41;5133243;27;20442;-60
2023/04/05 00:18:48;;;;;;;0.30;0.20;;;;;;;8.30;80.66;94472.22;5133472;27;20450;-60
2023/04/05 00:21:20;;;;;;;0.70;0.70;;;;;;;8.25;80.37;94476.72;5133428;27;20545;-60
2023/04/05 00:23:50;;;;;;;0.50;0.40;;;;;;;8.18;80.58;94476.25;5132629;27;20475;-60
2023/04/05 00:26:19;;;;;;;0.40;0.40;;;;;;;8.10;81.35;94482.09;5133571;27;20558;-60
2023/04/05 00:28:49;;;;;;;0.30;0.20;;;;;;;8.32;80.65;94477.25;5133356;27;20478;-60
2023/04/05 00:31:18;;;;;;;0.90;0.70;;;;;;;8.02;81.07;94482.69;5133441;27;20484;-60
2023/04/05 00:33:46;;;;;;;0.40;0.30;;;;;;;8.20;80.20;94466.19;5132744;27;20482;-60
2023/04/05 00:36:17;;;;;;;0.53;0.53;;;;;;;8.12;81.05;94488.69;5132853;27;21010;-60
2023/04/05 00:38:46;;;;;;;0.40;0.20;;;;;;;8.24;81.22;94485.72;5132872;27;20434;-60
2023/04/05 00:41:15;;;;;;;0.30;0.30;;;;;;;8.40;79.47;94447.59;5133046;27;20443;-60
2023/04/05 00:43:44;;;;;;;0.40;0.33;;;;;;;8.41;79.56;94483.50;5131980;27;20434;-60
2023/04/05 00:46:13;;;;;;;1.33;1.33;;;;;;;8.58;79.22;94496.31;5132814;27;20439;-60
2023/04/05 00:48:42;;;;;;;4.97;0.80;;;;;;;7.77;80.31;94441.41;5132843;27;20441;-60
2023/04/05 00:51:11;;;;;;;0.43;0.43;;;;;;;8.30;83.61;94505.75;5132856;27;20473;-60
2023/04/05 00:53:41;;;;;;;1.03;1.03;;;;;;;8.60;82.11;94491.56;5132561;27;20523;-60
2023/04/05 00:56:12;;;;;;;0.40;0.30;;;;;;;8.54;79.72;94496.09;5132129;27;20438;-60
2023/04/05 00:58:41;;;;;;;0.57;0.33;;;;;;;7.95;79.69;94493.53;5132670;27;20943;-60
2023/04/05 01:01:17;;;;;;;0.60;0.60;;;;;;;8.40;80.69;94489.06;5132595;27;21039;-60
2023/04/05 01:03:50;;;;;;;0.33;0.27;;;;;;;8.21;81.43;94491.53;5132611;27;20953;-60
2023/04/05 01:06:28;;;;;;;0.40;0.40;;;;;;;8.35;80.07;94497.81;5132741;27;20526;-60
2023/04/05 01:09:04;;;;;;;0.53;0.53;;;;;;;8.16;80.52;94489.72;5132789;27;20434;-60
2023/04/05 01:11:34;;;;;;;0.43;0.43;;;;;;;8.44;79.91;94495.38;5132438;27;20433;-60
2023/04/05 01:14:02;;;;;;;0.73;0.73;;;;;;;8.37;80.19;94505.47;5132294;28;20833;-60
2023/04/05 01:16:32;;;;;;;0.60;0.40;;;;;;;7.89;81.25;94504.41;5132654;28;20443;-60
2023/04/05 01:19:00;;;;;;;0.30;0.20;;;;;;;8.38;82.49;94502.53;5132605;27;20951;-60
2023/04/05 01:22:12;;;;;;;0.80;0.70;;;;;;;8.44;80.07;94512.00;5132899;28;20435;-60
2023/04/05 01:25:10;;;;;;;0.43;0.43;;;;;;;7.84;81.29;94489.41;5131909;27;20474;-59
2023/04/05 01:27:58;;;;;;;0.47;0.47;;;;;;;7.95;81.65;94508.56;5132175;28;20434;-60
2023/04/05 01:30:32;;;;;;;0.40;0.33;;;;;;;8.08;81.34;94513.25;5132165;28;20471;-60
2023/04/05 01:33:14;;;;;;;0.60;0.60;;;;;;;8.17;83.47;94511.63;5131725;27;20442;-60
2023/04/05 01:35:51;;;;;;;0.50;0.50;;;;;;;8.32;83.06;94518.69;5132728;27;20478;-60
2023/04/05 01:38:24;;;;;;;0.50;0.50;;;;;;;8.17;80.23;94524.84;5132161;27;20442;-60
2023/04/05 01:40:52;;;;;;;0.40;0.40;;;;;;;8.06;80.42;94521.47;5131585;28;20763;-60
2023/04/05 01:46:08;;;;;;;0.40;0.30;;;;;;;8.00;79.77;94519.09;5132512;27;20449;-60
2023/04/05 01:48:36;;;;;;;0.40;0.30;;;;;;;7.97;80.03;94520.44;5131973;28;20442;-60
2023/04/05 01:51:05;;;;;;;0.40;0.30;;;;;;;8.03;87.16;94527.28;5131820;28;20461;-60
2023/04/05 01:53:34;;;;;;;0.93;0.93;;;;;;;7.80;80.62;94520.00;5131689;28;20521;-60
2023/04/05 01:56:02;;;;;;;0.30;0.20;;;;;;;7.88;81.15;94521.28;5133809;27;20485;-60
2023/04/05 01:58:30;;;;;;;0.30;0.30;;;;;;;8.09;80.84;94526.19;5135799;27;20529;-60
2023/04/05 02:00:58;;;;;;;0.40;0.30;;;;;;;8.06;79.76;94531.22;5136194;27;20473;-61
2023/04/05 02:03:28;;;;;;;0.40;0.30;;;;;;;7.65;80.56;94504.25;5135929;27;20487;-60
2023/04/05 02:05:57;;;;;;;0.80;0.80;;;;;;;7.83;81.74;94529.22;5136304;27;20494;-60
2023/04/05 02:08:25;;;;;;;0.33;0.20;;;;;;;7.79;80.87;94520.28;5136139;27;20427;-60
2023/04/05 02:10:54;;;;;;;0.60;0.30;;;;;;;7.74;81.46;94523.72;5135720;27;20441;-60
2023/04/05 02:13:22;;;;;;;1.03;0.50;;;;;;;7.45;81.95;94520.13;5135694;27;20995;-60
2023/04/05 02:15:51;;;;;;;0.50;0.40;;;;;;;7.48;81.69;94469.50;5135510;27;20469;-60
2023/04/05 02:18:21;;;;;;;0.37;0.30;;;;;;;7.53;82.19;94522.22;5135563;27;20444;-60
2023/04/05 02:20:51;;;;;;;0.30;0.20;;;;;;;7.71;81.74;94529.53;5135216;27;20450;-60
2023/04/05 02:23:20;;;;;;;0.70;0.70;;;;;;;7.41;82.11;94505.94;5135404;27;20502;-60
2023/04/05 02:25:48;;;;;;;0.47;0.40;;;;;;;7.43;87.14;94525.69;5134962;27;20442;-60
2023/04/05 02:28:16;;;;;;;0.40;0.30;;;;;;;7.13;82.99;94532.88;5135521;27;20443;-60
2023/04/05 02:30:45;;;;;;;0.40;0.30;;;;;;;7.27;82.41;94531.25;5135043;27;20521;-60
2023/04/05 02:33:13;;;;;;;0.40;0.30;;;;;;;7.24;82.27;94529.13;5135826;27;20514;-60
2023/04/05 02:35:41;;;;;;;1.07;0.83;;;;;;;7.33;82.65;94528.34;5135292;27;20477;-60
2023/04/05 02:38:11;;;;;;;0.30;0.30;;;;;;;7.41;81.96;94508.56;5135322;27;20441;-60
2023/04/05 02:40:40;;;;;;;0.37;0.30;;;;;;;7.57;81.31;94534.59;5134733;27;20469;-60
2023/04/05 02:43:09;;;;;;;0.50;0.50;;;;;;;7.19;80.94;94522.03;5134991;27;20438;-60
2023/04/05 02:45:38;;;;;;;0.30;0.30;;;;;;;7.46;81.14;94527.75;5134912;27;20968;-60
2023/04/05 02:48:06;;;;;;;0.30;0.30;;;;;;;7.54;80.82;94535.13;5134749;27;20525;-60
2023/04/05 02:50:35;;;;;;;0.50;0.50;;;;;;;7.44;81.90;94535.16;5135490;27;20453;-60
2023/04/05 02:53:03;;;;;;;0.60;0.40;;;;;;;7.46;79.97;94532.28;5135080;27;20500;-60
2023/04/05 02:55:33;;;;;;;0.40;0.27;;;;;;;7.13;80.81;94520.50;5134860;27;20477;-60
2023/04/05 02:58:01;;;;;;;0.40;0.40;;;;;;;7.50;80.06;94534.09;5135142;27;20818;-60
2023/04/05 03:00:29;;;;;;;0.50;0.50;;;;;;;7.12;79.52;94531.28;5135305;27;20864;-60
2023/04/05 03:02:57;;;;;;;0.43;0.43;;;;;;;7.13;80.10;94532.88;5132208;27;20819;-60
2023/04/05 03:05:26;;;;;;;0.40;0.30;;;;;;;7.53;88.31;94538.03;5124254;27;20468;-60
2023/04/05 03:07:54;;;;;;;0.73;0.73;;;;;;;7.25;80.92;94536.00;5134221;27;20466;-60
2023/04/05 03:10:24;;;;;;;0.70;0.70;;;;;;;7.29;81.50;94529.94;5135055;27;20476;-60
2023/04/05 03:12:54;;;;;;;1.67;0.60;;;;;;;7.20;80.43;94536.81;5133735;27;20434;-60
2023/04/05 03:15:23;;;;;;;2.50;0.80;;;;;;;7.28;81.21;94532.84;5134263;27;20524;-60
2023/04/05 03:17:51;;;;;;;0.40;0.40;;;;;;;7.37;79.21;94539.94;5133433;27;20466;-60
2023/04/05 03:20:19;;;;;;;0.60;0.60;;;;;;;7.18;80.50;94541.56;5133991;27;20805;-60
2023/04/05 03:22:48;;;;;;;0.40;0.30;;;;;;;7.10;80.16;94543.94;5133645;27;20477;-60
2023/04/05 03:25:16;;;;;;;1.13;0.50;;;;;;;7.37;79.80;94542.56;5133959;27;21086;-60
2023/04/05 03:27:45;;;;;;;0.50;0.50;;;;;;;7.01;80.40;94547.09;5120740;27;20434;-60
2023/04/05 03:30:15;;;;;;;0.50;0.40;;;;;;;7.39;79.78;94548.34;5133864;27;20495;-61
2023/04/05 03:32:43;;;;;;;0.40;0.40;;;;;;;7.41;79.89;94540.97;5134406;27;20434;-60
2023/04/05 03:35:12;;;;;;;0.47;0.30;;;;;;;7.33;78.89;94538.91;5134083;27;20468;-60
2023/04/05 03:37:43;;;;;;;5.30;0.50;;;;;;;7.40;79.85;94541.25;5134041;27;20922;-59
2023/04/05 03:40:12;;;;;;;0.30;0.30;;;;;;;7.16;80.06;94545.53;5134279;27;20473;-59
2023/04/05 03:42:40;;;;;;;0.80;0.77;;;;;;;6.88;79.94;94552.13;5133780;27;20515;-59
2023/04/05 03:45:10;;;;;;;0.40;0.30;;;;;;;6.74;79.99;94549.22;5133878;27;20533;-60
2023/04/05 03:47:39;;;;;;;0.40;0.40;;;;;;;6.96;79.95;94554.22;5134206;27;20446;-60
2023/04/05 03:50:09;;;;;;;0.50;0.40;;;;;;;6.83;80.92;94552.16;5133617;27;20515;-60
2023/04/05 03:52:37;;;;;;;0.30;0.20;;;;;;;6.66;81.54;94556.84;5134087;27;20553;-60
2023/04/05 03:55:06;;;;;;;0.63;0.63;;;;;;;6.62;80.68;94550.56;5133294;27;20516;-60
2023/04/05 03:57:37;;;;;;;0.40;0.40;;;;;;;7.15;78.92;94552.63;5133516;27;20470;-60
2023/04/05 04:00:13;;;;;;;0.57;0.43;;;;;;;6.52;79.07;94532.91;5133604;27;20438;-60
2023/04/05 04:02:45;;;;;;;0.37;0.27;;;;;;;7.08;78.76;94559.22;5133089;27;20463;-60
2023/04/05 04:05:15;;;;;;;1.90;1.37;;;;;;;6.61;78.90;94514.72;5133485;27;20487;-60
2023/04/05 04:07:46;;;;;;;0.40;0.40;;;;;;;6.85;78.32;94560.56;5132966;27;21863;-60
2023/04/05 04:10:16;;;;;;;0.40;0.30;;;;;;;6.59;79.40;94514.22;5132997;27;20428;-59
2023/04/05 04:12:45;;;;;;;0.40;0.30;;;;;;;6.92;80.95;94569.78;5132886;27;20436;-59
2023/04/05 04:15:13;;;;;;;0.50;0.30;;;;;;;6.99;79.50;94569.50;5132392;27;20442;-59
2023/04/05 04:17:43;;;;;;;2.20;0.87;;;;;;;6.80;79.67;94542.13;5132249;27;20478;-59
2023/04/05 04:20:14;;;;;;;0.73;0.70;;;;;;;6.66;78.89;94535.78;5132681;27;20449;-59
2023/04/05 04:22:42;;;;;;;1.23;0.57;;;;;;;6.66;78.90;94576.09;5133239;27;20480;-59
2023/04/05 04:25:15;;;;;;;0.80;0.80;;;;;;;7.09;79.06;94572.13;5132906;27;20883;-59
2023/04/05 04:27:45;;;;;;;0.83;0.83;;;;;;;6.76;78.96;94575.28;5133064;27;20476;-60
2023/04/05 04:30:14;;;;;;;0.50;0.50;;;;;;;6.66;78.48;94536.59;5132657;27;20528;-59
2023/04/05 04:32:53;;;;;;;0.40;0.40;;;;;;;6.96;78.32;94585.81;5106020;27;20434;-59
2023/04/05 04:35:24;;;;;;;0.40;0.30;;;;;;;7.07;81.48;94581.34;5132852;27;20439;-59
2023/04/05 04:37:56;;;;;;;0.83;0.57;;;;;;;7.37;77.55;94579.47;5132656;27;20591;-59
2023/04/05 04:40:25;;;;;;;0.80;0.80;;;;;;;7.28;76.92;94583.72;5132462;27;20479;-59
2023/04/05 04:42:57;;;;;;;1.27;1.17;;;;;;;7.28;77.11;94596.09;5132816;27;20429;-58
2023/04/05 04:45:26;;;;;;;0.40;0.40;;;;;;;6.89;75.86;94545.81;5132186;27;20444;-58
2023/04/05 04:47:55;;;;;;;1.80;1.00;;;;;;;6.79;76.39;94582.69;5132288;27;21044;-58
2023/04/05 04:50:24;;;;;;;1.07;1.07;;;;;;;7.01;75.61;94577.91;5132749;27;20440;-58
2023/04/05 04:52:52;;;;;;;1.10;0.63;;;;;;;7.11;81.62;94593.72;5132593;27;20616;-58
2023/04/05 04:55:24;;;;;;;1.07;1.07;;;;;;;6.98;76.61;94531.06;5132400;27;20456;-58
2023/04/05 04:57:52;;;;;;;0.87;0.87;;;;;;;7.19;75.35;94598.47;5132399;27;20495;-58
2023/04/05 05:00:22;;;;;;;0.80;0.80;;;;;;;7.37;77.15;94597.13;5106106;27;20465;-58
2023/04/05 05:02:51;;;;;;;0.50;0.50;;;;;;;7.69;75.60;94587.81;5132363;27;20451;-58
2023/04/05 05:05:22;;;;;;;0.77;0.77;;;;;;;7.78;77.30;94598.63;5132025;27;20435;-58
2023/04/05 05:07:51;;;;;;;1.43;0.50;;;;;;;7.36;74.00;94601.59;5132061;27;20449;-58
2023/04/05 05:10:20;;;;;;;0.70;0.70;;;;;;;7.64;74.86;94601.03;5132039;27;20478;-59
2023/04/05 05:12:48;;;;;;;0.77;0.40;;;;;;;7.82;74.96;94604.16;5132493;27;20441;-58
2023/04/05 05:15:17;;;;;;;0.30;0.30;;;;;;;7.54;74.71;94595.78;5131496;28;21013;-59
2023/04/05 05:17:45;;;;;;;0.40;0.40;;;;;;;7.89;77.17;94607.28;5118632;28;20473;-59
2023/04/05 05:20:14;;;;;;;4.13;1.17;;;;;;;7.96;81.16;94597.22;5132754;28;20928;-59
2023/04/05 05:22:45;;;;;;;0.40;0.30;;;;;;;8.26;73.94;94603.19;5132299;27;20442;-59
2023/04/05 05:25:13;;;;;;;0.73;0.73;;;;;;;8.02;76.93;94610.13;5118463;27;20480;-59
2023/04/05 05:27:42;;;;;;;0.40;0.30;;;;;;;7.62;71.97;94595.22;5124963;28;20431;-58
2023/04/05 05:30:11;;;;;;;0.30;0.20;;;;;;;8.09;75.72;94610.66;5124433;27;20451;-59
2023/04/05 05:32:41;;;;;;;0.60;0.60;;;;;;;7.85;72.09;94614.16;5108841;28;20434;-59
2023/04/05 05:35:10;;;;;;;0.50;0.40;;;;;;;8.01;71.94;94613.84;5133503;28;20439;-57
2023/04/05 05:37:39;;;;;;;0.80;0.80;;;;;;;7.77;72.21;94609.44;5123173;28;20927;-59
2023/04/05 05:40:12;;;;;;;0.97;0.60;;;;;;;7.79;73.05;94620.50;5135119;28;20492;-58
2023/04/05 05:42:40;;;;;;;1.17;1.07;;;;;;;7.91;71.48;94597.25;5135082;28;20434;-58
2023/04/05 05:45:10;;;;;;;0.57;0.47;;;;;;;8.21;70.83;94623.53;5134782;28;20430;-58
2023/04/05 05:47:38;;;;;;;0.70;0.70;;;;;;;8.82;84.18;94626.66;5134825;28;20918;-57
2023/04/05 05:50:08;;;;;;;0.70;0.70;;;;;;;8.78;76.26;94623.75;5134738;28;20434;-58
2023/04/05 05:52:37;;;;;;;1.00;0.40;;;;;;;8.56;76.18;94615.44;5134365;28;20447;-59
2023/04/05 05:55:06;;;;;;;0.63;0.53;;;;;;;8.43;72.07;94623.97;5134245;28;20958;-67
2023/04/05 05:57:37;;;;;;;0.40;0.40;;;;;;;8.72;73.92;94622.22;5134024;27;20542;-66
2023/04/05 06:00:09;;;;;;;0.53;0.40;;;;;;;8.72;70.45;94627.50;5134192;28;20513;-66
2023/04/05 06:02:37;;;;;;;0.70;0.70;;;;;;;8.56;70.23;94625.22;5133695;27;20438;-65
2023/04/05 06:05:07;;;;;;;0.40;0.30;;;;;;;8.42;70.56;94622.41;5133737;28;21015;-66
2023/04/05 06:07:37;;;;;;;3.30;1.60;;;;;;;8.09;71.47;94629.13;5134151;28;20953;-65
2023/04/05 06:10:06;;;;;;;0.40;0.40;;;;;;;8.39;72.49;94619.50;5134333;28;20431;-66
2023/04/05 06:12:36;;;;;;;0.73;0.73;;;;;;;8.05;69.93;94635.97;5134392;27;20928;-69
2023/04/05 06:15:05;;;;;;;2.77;1.00;;;;;;;8.14;69.92;94631.75;5124035;27;20530;-69
2023/04/05 06:17:40;;;;;;;0.40;0.30;;;;;;;8.24;69.85;94633.53;5131007;28;20478;-69
2023/04/05 06:20:10;;;;;;;0.40;0.30;;;;;;;8.05;70.61;94640.47;5133945;28;20439;-68
2023/04/05 06:22:40;;;;;;;0.40;0.30;;;;;;;8.39;69.45;94638.78;5134012;27;20961;-67
2023/04/05 06:25:11;;;;;;;0.40;0.40;;;;;;;8.00;69.21;94640.47;5092392;27;1215287;-67
2023/04/05 06:27:40;;;;;;;1.17;1.17;;;;;;;7.93;71.41;94653.97;5135124;27;20358;-69
2023/04/05 06:30:10;;;;;;;0.43;0.43;;;;;;;8.09;71.25;94647.59;5134904;27;20457;-67
2023/04/05 06:32:38;;;;;;;0.40;0.40;;;;;;;8.21;70.52;94655.19;5135089;27;20435;-72
2023/04/05 06:35:08;;;;;;;0.47;0.47;;;;;;;8.16;70.95;94649.94;5135355;27;20439;-72
2023/04/05 06:37:36;;;;;;;0.30;0.20;;;;;;;8.02;71.71;94646.31;5108600;27;20466;-73
2023/04/05 06:40:06;;;;;;;0.47;0.37;;;;;;;8.23;71.94;94663.63;5134885;27;20441;-70
2023/04/05 06:42:34;;;;;;;1.23;0.67;;;;;;;8.10;71.57;94659.72;5136092;27;20816;-70
2023/04/05 06:45:05;;;;;;;0.40;0.30;;;;;;;7.30;72.13;94620.34;5135253;27;20442;-72
2023/04/05 06:47:34;;;;;;;0.30;0.30;;;;;;;7.88;72.73;94672.44;5134749;27;20541;-68
2023/04/05 06:50:03;;;;;;;0.40;0.40;;;;;;;8.19;72.10;94679.22;5133958;27;20447;-67
2023/04/05 06:52:33;;;;;;;3.10;0.67;;;;;;;8.17;71.31;94675.28;5135146;27;20453;-66
2023/04/05 06:55:01;;;;;;;0.40;0.30;;;;;;;7.55;72.20;94605.28;5134928;27;20439;-67
2023/04/05 06:57:29;;;;;;;0.47;0.30;;;;;;;8.57;72.04;94690.19;5134954;27;20550;-69
2023/04/05 06:59:58;;;;;;;0.50;0.50;;;;;;;8.29;73.56;94691.63;5134531;27;20793;-67
2023/04/05 07:02:28;;;;;;;0.50;0.37;;;;;;;8.58;74.50;94703.13;5135083;27;20442;-69
2023/04/05 07:05:03;;;;;;;14.77;2.00;;;;;;;8.50;77.47;94684.41;5133981;27;20496;-65
2023/04/05 07:07:32;;;;;;;1.17;1.17;;;;;;;8.79;78.10;94704.59;5121031;27;20443;-67
2023/04/05 07:10:00;;;;;;;1.60;1.50;;;;;;;8.86;77.55;94701.66;5107874;27;20983;-68
2023/04/05 07:12:28;;;;;;;1.03;1.03;;;;;;;8.45;77.44;94706.34;5134455;27;20438;-68
2023/04/05 07:14:56;;;;;;;1.53;1.00;;;;;;;7.94;77.47;94710.97;5134508;27;20945;-66
2023/04/05 07:17:25;;;;;;;0.40;0.30;;;;;;;8.58;79.83;94713.69;5134555;27;20497;-66
2023/04/05 07:19:55;;;;;;;0.40;0.30;;;;;;;8.55;78.96;94716.84;5134477;27;20438;-67
2023/04/05 07:22:23;;;;;;;0.97;0.97;;;;;;;8.75;78.91;94719.41;5134335;27;20437;-66
2023/04/05 07:24:52;;;;;;;0.80;0.80;;;;;;;8.26;78.56;94716.72;5134264;27;21012;-66
2023/04/05 07:27:20;;;;;;;0.40;0.30;;;;;;;8.29;78.52;94673.94;5134108;27;20892;-66
2023/04/05 07:29:49;;;;;;;0.77;0.77;;;;;;;8.21;79.66;94726.47;5134118;27;20504;-65
2023/04/05 07:32:17;;;;;;;0.70;0.70;;;;;;;8.03;79.45;94721.75;5133017;27;20442;-64
2023/04/05 07:34:47;;;;;;;0.70;0.50;;;;;;;7.63;80.42;94693.59;5133690;27;20457;-64
2023/04/05 07:37:16;;;;;;;0.40;0.40;;;;;;;8.36;80.45;94728.28;5133239;27;20983;-64
2023/04/05 07:39:45;;;;;;;0.90;0.90;;;;;;;8.10;81.55;94661.56;5134035;27;20853;-64
2023/04/05 07:42:13;;;;;;;1.60;1.60;;;;;;;9.24;80.81;94729.97;5133409;27;20449;-65
2023/04/05 07:44:41;;;;;;;0.40;0.40;;;;;;;9.30;77.10;94730.72;5133306;27;20438;-63
2023/04/05 07:47:10;;;;;;;0.80;0.40;;;;;;;9.13;76.08;94736.41;5133965;27;20427;-64
2023/04/05 07:49:41;;;;;;;0.40;0.30;;;;;;;8.77;77.68;94745.56;5133353;27;20500;-65
2023/04/05 07:52:10;;;;;;;2.10;0.97;;;;;;;8.64;77.70;94720.53;5133662;27;20511;-64
2023/04/05 07:54:42;;;;;;;0.50;0.30;;;;;;;9.59;78.46;94744.78;5132498;27;20430;-68
2023/04/05 07:57:10;;;;;;;0.60;0.60;;;;;;;9.72;74.75;94746.00;5133585;27;20496;-67
2023/04/05 07:59:38;;;;;;;4.73;0.40;;;;;;;9.46;76.67;94742.78;5133155;27;20554;-67
2023/04/05 08:02:07;;;;;;;0.63;0.63;;;;;;;9.41;76.75;94748.13;5133818;27;20531;-66
2023/04/05 08:04:41;;;;;;;0.40;0.30;;;;;;;9.48;75.50;94753.88;5132550;27;20521;-65
2023/04/05 08:07:10;;;;;;;0.30;0.30;;;;;;;9.39;76.62;94739.66;5133309;27;20454;-66
2023/04/05 08:09:40;;;;;;;0.30;0.20;;;;;;;9.61;74.86;94737.38;5133318;27;20561;-65
2023/04/05 08:12:10;;;;;;;0.30;0.30;;;;;;;9.90;73.73;94756.72;5133296;27;20492;-67
2023/04/05 08:14:38;;;;;;;1.40;0.60;;;;;;;9.99;71.67;94754.25;5133065;27;21020;-67
2023/04/05 08:17:06;;;;;;;0.93;0.93;;;;;;;9.84;74.63;94757.03;5132461;27;20931;-66
2023/04/05 08:19:35;;;;;;;1.00;0.97;;;;;;;9.65;73.41;94764.84;5132858;27;20470;-66
2023/04/05 08:22:03;;;;;;;3.73;0.90;;;;;;;9.75;73.07;94769.28;5132620;27;20508;-66
2023/04/05 08:24:31;;;;;;;0.53;0.33;;;;;;;9.71;73.06;94758.47;5132616;27;20580;-70
2023/04/05 08:27:01;;;;;;;0.40;0.33;;;;;;;10.18;71.03;94755.97;5132602;27;20431;-65
2023/04/05 08:29:30;;;;;;;0.50;0.30;;;;;;;9.67;70.34;94756.63;5133211;27;20443;-66
2023/04/05 08:31:58;;;;;;;0.47;0.43;;;;;;;9.84;73.35;94767.63;5132903;27;20431;-65
2023/04/05 08:34:27;;;;;;;0.77;0.77;;;;;;;10.01;69.22;94757.41;5132442;27;20522;-71
2023/04/05 08:36:59;;;;;;;1.27;0.60;;;;;;;10.24;66.38;94769.16;5132902;27;20894;-65
2023/04/05 08:39:27;;;;;;;0.30;0.20;;;;;;;10.96;69.42;94760.91;5132453;27;20478;-61
2023/04/05 08:42:08;;;;;;;0.50;0.30;;;;;;;10.85;67.67;94739.03;5132301;27;20442;-60
2023/04/05 08:44:37;;;;;;;0.40;0.40;;;;;;;10.70;64.81;94680.13;5132707;27;20479;-60
2023/04/05 08:47:06;;;;;;;0.60;0.30;;;;;;;11.33;66.12;94758.28;5132234;27;20984;-60
2023/04/05 08:49:34;;;;;;;0.43;0.43;;;;;;;11.67;66.08;94762.56;5132734;27;20478;-60
2023/04/05 08:52:04;;;;;;;0.63;0.63;;;;;;;11.80;63.21;94756.53;5132618;27;20430;-60
2023/04/05 08:54:33;;;;;;;0.30;0.20;;;;;;;11.89;62.26;94744.97;5132346;27;20431;-60
2023/04/05 08:57:02;;;;;;;0.70;0.70;;;;;;;11.51;61.08;94676.31;5132266;27;20943;-61
2023/04/05 08:59:34;;;;;;;0.53;0.53;;;;;;;12.51;60.33;94748.94;5129993;27;20482;-61
2023/04/05 09:02:08;;;;;;;0.50;0.30;;;;;;;13.18;58.89;94746.56;5121626;27;20492;-62
2023/04/05 09:04:43;;;;;;;0.40;0.30;;;;;;;13.30;56.48;94747.63;5131692;27;20691;-61
2023/04/05 09:07:13;;;;;;;0.97;0.83;;;;;;;12.86;57.36;94664.22;5132514;27;20447;-63
2023/04/05 09:09:46;;;;;;;0.40;0.40;;;;;;;13.79;56.55;94744.09;5132057;27;20445;-63
2023/04/05 09:12:15;;;;;;;0.50;0.50;;;;;;;14.45;56.12;94748.59;5132343;27;20431;-64
2023/04/05 09:14:47;;;;;;;0.67;0.50;;;;;;;14.04;54.17;94744.56;5105586;28;20522;-64
2023/04/05 09:17:18;;;;;;;0.43;0.40;;;;;;;14.50;53.95;94739.66;5132082;28;20431;-65
2023/04/05 09:19:48;;;;;;;0.70;0.60;;;;;;;14.81;54.34;94743.09;5131787;28;20506;-69
2023/04/05 09:22:18;;;;;;;0.70;0.30;;;;;;;15.49;51.95;94747.00;5123986;28;20992;-73
2023/04/05 09:24:47;;;;;;;0.73;0.73;;;;;;;16.15;49.91;94701.06;5132118;28;20563;-69
2023/04/05 09:27:17;;;;;;;0.47;0.40;;;;;;;16.96;50.24;94725.81;5131945;28;20469;-62
2023/04/05 09:29:49;;;;;;;0.40;0.20;;;;;;;18.60;45.54;94717.22;5132397;28;20439;-59
2023/04/05 09:32:20;;;;;;;3.00;0.40;;;;;;;17.95;45.41;94718.03;5131968;28;20461;-56
2023/04/05 09:34:48;;;;;;;0.77;0.77;;;;;;;17.68;45.89;94724.72;5131864;27;20468;-56
2023/04/05 09:37:22;;;;;;;0.60;0.50;;;;;;;17.24;47.75;94728.00;5132080;28;20533;-55
2023/04/05 09:39:51;;;;;;;2.73;0.50;;;;;;;18.07;48.02;94724.22;5131762;28;20485;-56
2023/04/05 09:42:22;;;;;;;0.73;0.73;;;;;;;17.92;43.42;94718.69;5105704;28;20435;-55
2023/04/05 09:45:00;;;;;;;0.50;0.40;;;;;;;17.38;42.98;94725.88;5131522;28;20474;-55
2023/04/05 09:47:31;;;;;;;0.57;0.40;;;;;;;17.52;42.47;94680.84;5132280;28;20509;-56
2023/04/05 09:50:00;;;;;;;0.50;0.50;;;;;;;18.92;44.50;94714.44;5131682;27;20435;-55
2023/04/05 09:52:31;;;;;;;0.70;0.70;;;;;;;19.21;43.26;94685.75;5131658;28;20447;-55
2023/04/05 09:55:01;;;;;;;0.50;0.40;;;;;;;19.51;43.45;94713.94;5131864;28;21007;-55
2023/04/05 09:57:34;;;;;;;0.70;0.50;;;;;;;19.07;39.74;94717.56;5131416;28;20526;-55
2023/04/05 10:00:05;;;;;;;0.43;0.40;;;;;;;20.71;39.29;94709.97;5130666;28;20477;-55
2023/04/05 10:02:37;;;;;;;0.50;0.47;;;;;;;22.06;39.28;94700.31;5131470;28;20445;-56
2023/04/05 10:05:10;;;;;;;0.40;0.30;;;;;;;21.21;40.25;94684.22;5131551;27;20427;-57
2023/04/05 10:07:39;;;;;;;0.60;0.53;;;;;;;20.86;41.18;94703.00;5131917;28;20462;-56
2023/04/05 10:10:09;;;;;;;0.50;0.40;;;;;;;19.68;39.88;94705.63;5131775;28;20474;-56
2023/04/05 10:12:40;;;;;;;0.60;0.60;;;;;;;18.54;40.76;94705.94;5131893;28;20534;-56
2023/04/05 10:15:12;;;;;;;0.60;0.57;;;;;;;17.98;42.23;94701.28;5131195;28;20460;-55
2023/04/05 10:17:51;;;;;;;0.70;0.40;;;;;;;17.73;42.42;94701.16;5134066;27;20487;-55
2023/04/05 10:20:22;;;;;;;0.77;0.67;;;;;;;16.81;43.02;94714.84;5135367;27;20474;-57
2023/04/05 10:23:09;;;;;;;0.60;0.60;;;;;;;17.14;44.52;94711.22;5135384;27;20441;-58
2023/04/05 10:25:49;;;;;;;1.43;1.33;;;;;;;16.87;43.40;94705.53;5135524;27;20442;-57
2023/04/05 10:28:29;;;;;;;0.80;0.80;;;;;;;16.60;44.77;94705.97;5135249;27;20442;-57
2023/04/05 10:31:10;;;;;;;0.63;0.57;;;;;;;18.08;43.01;94708.91;5135289;27;20460;-55
2023/04/05 10:33:44;;;;;;;0.50;0.40;;;;;;;19.10;41.78;94709.59;5135264;27;20438;-56
2023/04/05 10:36:22;;;;;;;0.63;0.63;;;;;;;17.17;41.95;94712.47;5135539;27;20442;-56
2023/04/05 10:39:03;;;;;;;0.50;0.50;;;;;;;17.35;42.81;94708.56;5135040;27;20430;-58
2023/04/05 10:41:35;;;;;;;0.40;0.20;;;;;;;17.48;43.09;94672.66;5135506;27;20466;-61
2023/04/05 10:44:05;;;;;;;0.40;0.30;;;;;;;18.22;42.05;94691.41;5135244;27;20463;-61
2023/04/05 10:46:55;;;;;;;0.50;0.40;;;;;;;18.32;42.55;94707.06;5135372;27;20769;-61
2023/04/05 10:49:33;;;;;;;0.40;0.30;;;;;;;18.02;40.41;94681.50;5135405;27;20473;-61
2023/04/05 10:52:02;;;;;;;0.30;0.20;;;;;;;18.22;41.80;94704.81;5134910;27;20491;-61
2023/04/05 10:54:35;;;;;;;0.50;0.40;;;;;;;18.79;41.78;94706.72;5134771;27;20521;-61
2023/04/05 10:57:06;;;;;;;0.90;0.63;;;;;;;17.04;41.36;94622.44;5135252;27;20489;-62
2023/04/05 10:59:42;;;;;;;1.23;0.60;;;;;;;17.95;41.33;94712.66;5134724;27;20462;-61
2023/04/05 11:02:14;;;;;;;0.83;0.60;;;;;;;17.53;42.94;94707.31;5134707;27;20457;-60
2023/04/05 11:04:42;;;;;;;0.57;0.30;;;;;;;17.70;43.04;94701.84;5134548;27;20938;-60
2023/04/05 11:07:12;;;;;;;0.50;0.50;;;;;;;16.65;42.52;94701.22;5135039;27;20530;-59
2023/04/05 11:09:51;;;;;;;1.57;1.13;;;;;;;15.54;44.74;94717.47;5134377;27;20472;-60
2023/04/05 11:12:19;;;;;;;0.63;0.60;;;;;;;16.78;43.94;94718.16;5134165;27;20434;-60
2023/04/05 11:14:48;;;;;;;0.70;0.40;;;;;;;17.21;42.90;94694.63;5134368;27;20522;-61
2023/04/05 11:17:29;;;;;;;0.90;0.90;;;;;;;15.84;43.72;94652.38;5134288;27;20435;-60
2023/04/05 11:20:03;;;;;;;0.50;0.37;;;;;;;17.13;44.43;94698.13;5133611;27;20473;-62
2023/04/05 11:22:32;;;;;;;0.50;0.50;;;;;;;17.55;42.95;94701.66;5133778;27;20951;-61
2023/04/05 11:25:01;;;;;;;0.50;0.30;;;;;;;16.34;43.52;94704.13;5133826;27;21000;-60
2023/04/05 11:27:31;;;;;;;1.73;0.93;;;;;;;15.60;44.96;94701.00;5133517;27;20939;-60
2023/04/05 11:30:01;;;;;;;0.60;0.53;;;;;;;16.10;44.90;94703.13;5117548;27;20534;-60
2023/04/05 11:32:41;;;;;;;0.50;0.50;;;;;;;16.93;43.43;94702.34;5132670;27;20435;-61
2023/04/05 11:35:16;;;;;;;0.40;0.30;;;;;;;17.47;43.14;94657.72;5133608;27;20781;-61
2023/04/05 11:38:08;;;;;;;0.67;0.50;;;;;;;17.99;44.30;94698.25;5133792;27;20562;-60
2023/04/05 11:40:39;;;;;;;0.90;0.30;;;;;;;16.85;43.78;94664.94;5133452;27;20554;-60
2023/04/05 11:43:10;;;;;;;4.13;0.33;;;;;;;16.77;44.69;94695.22;5133929;27;20521;-61
2023/04/05 11:45:40;;;;;;;0.50;0.30;;;;;;;16.27;44.51;94628.97;5108048;27;20454;-60
2023/04/05 11:48:12;;;;;;;0.70;0.50;;;;;;;15.51;45.68;94702.88;5133333;27;20529;-62
2023/04/05 11:50:41;;;;;;;0.90;0.90;;;;;;;14.56;46.51;94627.25;5133400;27;20943;-64
2023/04/05 11:53:11;;;;;;;0.60;0.60;;;;;;;15.51;46.64;94692.19;5133187;27;21015;-66
2023/04/05 11:55:40;;;;;;;2.37;0.50;;;;;;;16.01;45.49;94705.81;5133280;27;20567;-66
2023/04/05 11:58:14;;;;;;;0.40;0.30;;;;;;;15.40;46.42;94698.13;5133042;27;20472;-66